sensor_id;sensor_type;location;lat;lon;timestamp;temperature;humidity
30899;DHT22;17914;52.484;13.424;2024-01-30T00:01:19;18.80;48.90
30899;DHT22;17914;52.484;13.424;2024-01-30T00:03:49;18.80;48.90
30899;DHT22;17914;52.484;13.424;2024-01-30T00:06:18;18.80;48.90
30899;DHT22;17914;52.484;13.424;2024-01-30T00:08:47;18.80;48.90
30899;DHT22;17914;52.484;13.424;2024-01-30T00:11:16;18.80;48.90
30899;DHT22;17914;52.484;13.424;2024-01-30T00:13:44;18.80;48.90
30899;DHT22;17914;52.484;13.424;2024-01-30T00:16:20;18.80;48.80
30899;DHT22;17914;52.484;13.424;2024-01-30T00:18:50;18.80;48.80
30899;DHT22;17914;52.484;13.424;2024-01-30T00:21:18;18.80;48.80
30899;DHT22;17914;52.484;13.424;2024-01-30T00:23:46;18.70;49.40
30899;DHT22;17914;52.484;13.424;2024-01-30T00:26:14;18.70;49.40
30899;DHT22;17914;52.484;13.424;2024-01-30T00:28:42;18.80;49.50
30899;DHT22;17914;52.484;13.424;2024-01-30T00:31:11;18.80;49.40
30899;DHT22;17914;52.484;13.424;2024-01-30T00:33:41;18.80;49.40
30899;DHT22;17914;52.484;13.424;2024-01-30T00:36:10;18.80;49.30
30899;DHT22;17914;52.484;13.424;2024-01-30T00:38:38;18.80;49.30
30899;DHT22;17914;52.484;13.424;2024-01-30T00:41:08;18.80;49.30
30899;DHT22;17914;52.484;13.424;2024-01-30T00:43:36;18.80;49.30
30899;DHT22;17914;52.484;13.424;2024-01-30T00:46:04;18.80;49.30
30899;DHT22;17914;52.484;13.424;2024-01-30T00:48:32;18.80;49.30
30899;DHT22;17914;52.484;13.424;2024-01-30T00:51:00;18.80;49.30
30899;DHT22;17914;52.484;13.424;2024-01-30T00:53:29;18.80;49.30
30899;DHT22;17914;52.484;13.424;2024-01-30T00:55:58;18.80;49.30
30899;DHT22;17914;52.484;13.424;2024-01-30T00:58:26;18.80;49.10
30899;DHT22;17914;52.484;13.424;2024-01-30T01:00:54;18.80;49.20
30899;DHT22;17914;52.484;13.424;2024-01-30T01:03:22;18.80;49.10
30899;DHT22;17914;52.484;13.424;2024-01-30T01:05:50;18.80;49.20
30899;DHT22;17914;52.484;13.424;2024-01-30T01:08:18;18.80;49.20
30899;DHT22;17914;52.484;13.424;2024-01-30T01:10:48;18.80;49.20
30899;DHT22;17914;52.484;13.424;2024-01-30T01:13:16;18.70;49.40
30899;DHT22;17914;52.484;13.424;2024-01-30T01:15:44;18.70;49.30
30899;DHT22;17914;52.484;13.424;2024-01-30T01:18:12;18.80;49.30
30899;DHT22;17914;52.484;13.424;2024-01-30T01:20:40;18.70;49.40
30899;DHT22;17914;52.484;13.424;2024-01-30T01:23:08;18.80;49.30
30899;DHT22;17914;52.484;13.424;2024-01-30T01:25:36;18.80;49.20
30899;DHT22;17914;52.484;13.424;2024-01-30T01:28:06;18.80;49.10
30899;DHT22;17914;52.484;13.424;2024-01-30T01:30:34;18.80;49.00
30899;DHT22;17914;52.484;13.424;2024-01-30T01:33:02;18.80;49.00
30899;DHT22;17914;52.484;13.424;2024-01-30T01:35:30;18.80;49.00
30899;DHT22;17914;52.484;13.424;2024-01-30T01:37:58;18.80;49.60
30899;DHT22;17914;52.484;13.424;2024-01-30T01:40:27;18.80;49.10
30899;DHT22;17914;52.484;13.424;2024-01-30T01:42:55;18.80;49.20
30899;DHT22;17914;52.484;13.424;2024-01-30T01:45:25;18.80;50.10
30899;DHT22;17914;52.484;13.424;2024-01-30T01:47:53;18.80;49.40
30899;DHT22;17914;52.484;13.424;2024-01-30T01:50:22;18.80;49.30
30899;DHT22;17914;52.484;13.424;2024-01-30T01:52:51;18.80;49.30
30899;DHT22;17914;52.484;13.424;2024-01-30T01:55:21;18.80;49.20
30899;DHT22;17914;52.484;13.424;2024-01-30T01:57:52;18.70;49.10
30899;DHT22;17914;52.484;13.424;2024-01-30T02:00:21;18.80;49.20
30899;DHT22;17914;52.484;13.424;2024-01-30T02:02:52;18.80;49.20
30899;DHT22;17914;52.484;13.424;2024-01-30T02:05:21;18.80;49.20
30899;DHT22;17914;52.484;13.424;2024-01-30T02:07:50;18.80;49.20
30899;DHT22;17914;52.484;13.424;2024-01-30T02:10:19;18.70;49.20
30899;DHT22;17914;52.484;13.424;2024-01-30T02:12:48;18.70;49.20
30899;DHT22;17914;52.484;13.424;2024-01-30T02:15:16;18.70;49.20
30899;DHT22;17914;52.484;13.424;2024-01-30T02:17:44;18.70;49.10
30899;DHT22;17914;52.484;13.424;2024-01-30T02:20:14;18.70;49.10
30899;DHT22;17914;52.484;13.424;2024-01-30T02:22:43;18.70;49.10
30899;DHT22;17914;52.484;13.424;2024-01-30T02:25:11;18.70;49.10
30899;DHT22;17914;52.484;13.424;2024-01-30T02:27:39;18.70;49.10
30899;DHT22;17914;52.484;13.424;2024-01-30T02:30:08;18.70;49.10
30899;DHT22;17914;52.484;13.424;2024-01-30T02:32:36;18.70;49.10
30899;DHT22;17914;52.484;13.424;2024-01-30T02:35:05;18.70;49.10
30899;DHT22;17914;52.484;13.424;2024-01-30T02:37:33;18.70;49.10
30899;DHT22;17914;52.484;13.424;2024-01-30T02:40:02;18.70;49.20
30899;DHT22;17914;52.484;13.424;2024-01-30T02:42:31;18.70;49.40
30899;DHT22;17914;52.484;13.424;2024-01-30T02:44:59;18.70;49.40
30899;DHT22;17914;52.484;13.424;2024-01-30T02:47:27;18.70;49.30
30899;DHT22;17914;52.484;13.424;2024-01-30T02:49:55;18.70;49.20
30899;DHT22;17914;52.484;13.424;2024-01-30T02:52:23;18.70;49.40
30899;DHT22;17914;52.484;13.424;2024-01-30T02:54:51;18.70;49.60
30899;DHT22;17914;52.484;13.424;2024-01-30T02:57:21;18.70;49.30
30899;DHT22;17914;52.484;13.424;2024-01-30T02:59:49;18.70;49.20
30899;DHT22;17914;52.484;13.424;2024-01-30T03:02:17;18.70;49.20
30899;DHT22;17914;52.484;13.424;2024-01-30T03:04:45;18.70;49.20
30899;DHT22;17914;52.484;13.424;2024-01-30T03:07:13;18.70;49.20
30899;DHT22;17914;52.484;13.424;2024-01-30T03:09:42;18.70;49.30
30899;DHT22;17914;52.484;13.424;2024-01-30T03:12:10;18.70;49.20
30899;DHT22;17914;52.484;13.424;2024-01-30T03:14:40;18.70;49.10
30899;DHT22;17914;52.484;13.424;2024-01-30T03:17:08;18.70;49.10
30899;DHT22;17914;52.484;13.424;2024-01-30T03:19:36;18.70;49.10
30899;DHT22;17914;52.484;13.424;2024-01-30T03:22:04;18.70;49.10
30899;DHT22;17914;52.484;13.424;2024-01-30T03:24:32;18.70;49.10
30899;DHT22;17914;52.484;13.424;2024-01-30T03:27:01;18.70;49.00
30899;DHT22;17914;52.484;13.424;2024-01-30T03:29:29;18.70;49.00
30899;DHT22;17914;52.484;13.424;2024-01-30T03:31:58;18.70;49.00
30899;DHT22;17914;52.484;13.424;2024-01-30T03:34:26;18.70;49.00
30899;DHT22;17914;52.484;13.424;2024-01-30T03:36:54;18.70;48.90
30899;DHT22;17914;52.484;13.424;2024-01-30T03:39:24;18.70;49.00
30899;DHT22;17914;52.484;13.424;2024-01-30T03:41:52;18.70;49.00
30899;DHT22;17914;52.484;13.424;2024-01-30T03:44:20;18.70;48.90
30899;DHT22;17914;52.484;13.424;2024-01-30T03:46:48;18.70;48.90
30899;DHT22;17914;52.484;13.424;2024-01-30T03:49:17;18.70;49.00
30899;DHT22;17914;52.484;13.424;2024-01-30T03:51:46;18.70;49.00
30899;DHT22;17914;52.484;13.424;2024-01-30T03:54:15;18.70;48.90
30899;DHT22;17914;52.484;13.424;2024-01-30T03:56:43;18.70;49.00
30899;DHT22;17914;52.484;13.424;2024-01-30T03:59:11;18.70;48.90
30899;DHT22;17914;52.484;13.424;2024-01-30T04:01:39;18.70;48.80
30899;DHT22;17914;52.484;13.424;2024-01-30T04:04:07;18.70;48.80
30899;DHT22;17914;52.484;13.424;2024-01-30T04:06:37;18.70;48.80
30899;DHT22;17914;52.484;13.424;2024-01-30T04:09:05;18.70;48.80
30899;DHT22;17914;52.484;13.424;2024-01-30T04:11:33;18.70;48.80
30899;DHT22;17914;52.484;13.424;2024-01-30T04:14:01;18.70;48.90
30899;DHT22;17914;52.484;13.424;2024-01-30T04:16:29;18.70;49.40
30899;DHT22;17914;52.484;13.424;2024-01-30T04:18:58;18.70;49.40
30899;DHT22;17914;52.484;13.424;2024-01-30T04:21:26;18.70;49.30
30899;DHT22;17914;52.484;13.424;2024-01-30T04:23:56;18.70;49.30
30899;DHT22;17914;52.484;13.424;2024-01-30T04:26:24;18.80;49.30
30899;DHT22;17914;52.484;13.424;2024-01-30T04:28:52;18.70;49.20
30899;DHT22;17914;52.484;13.424;2024-01-30T04:31:20;18.80;49.20
30899;DHT22;17914;52.484;13.424;2024-01-30T04:33:48;18.70;49.10
30899;DHT22;17914;52.484;13.424;2024-01-30T04:36:17;18.80;49.80
30899;DHT22;17914;52.484;13.424;2024-01-30T04:38:44;18.70;49.10
30899;DHT22;17914;52.484;13.424;2024-01-30T04:41:14;18.70;49.10
30899;DHT22;17914;52.484;13.424;2024-01-30T04:43:42;18.70;49.10
30899;DHT22;17914;52.484;13.424;2024-01-30T04:46:10;18.70;49.00
30899;DHT22;17914;52.484;13.424;2024-01-30T04:48:38;18.70;49.00
30899;DHT22;17914;52.484;13.424;2024-01-30T04:51:06;18.70;49.00
30899;DHT22;17914;52.484;13.424;2024-01-30T04:53:34;18.70;49.00
30899;DHT22;17914;52.484;13.424;2024-01-30T04:56:02;18.70;49.00
30899;DHT22;17914;52.484;13.424;2024-01-30T04:58:31;18.70;49.60
30899;DHT22;17914;52.484;13.424;2024-01-30T05:00:59;18.70;49.20
30899;DHT22;17914;52.484;13.424;2024-01-30T05:03:27;18.70;49.20
30899;DHT22;17914;52.484;13.424;2024-01-30T05:05:55;18.70;49.10
30899;DHT22;17914;52.484;13.424;2024-01-30T05:08:23;18.70;49.10
30899;DHT22;17914;52.484;13.424;2024-01-30T05:10:51;18.70;49.10
30899;DHT22;17914;52.484;13.424;2024-01-30T05:13:19;18.70;49.00
30899;DHT22;17914;52.484;13.424;2024-01-30T05:15:49;18.70;49.10
30899;DHT22;17914;52.484;13.424;2024-01-30T05:18:17;18.70;49.00
30899;DHT22;17914;52.484;13.424;2024-01-30T05:20:45;18.70;49.30
30899;DHT22;17914;52.484;13.424;2024-01-30T05:23:13;18.70;49.40
30899;DHT22;17914;52.484;13.424;2024-01-30T05:25:41;18.70;49.40
30899;DHT22;17914;52.484;13.424;2024-01-30T05:28:09;18.70;49.20
30899;DHT22;17914;52.484;13.424;2024-01-30T05:30:37;18.70;49.00
30899;DHT22;17914;52.484;13.424;2024-01-30T05:33:07;18.70;49.20
30899;DHT22;17914;52.484;13.424;2024-01-30T05:35:36;18.70;50.00
30899;DHT22;17914;52.484;13.424;2024-01-30T05:38:04;18.70;50.70
30899;DHT22;17914;52.484;13.424;2024-01-30T05:40:32;18.80;50.70
30899;DHT22;17914;52.484;13.424;2024-01-30T05:43:00;18.80;50.50
30899;DHT22;17914;52.484;13.424;2024-01-30T05:45:29;18.80;50.10
30899;DHT22;17914;52.484;13.424;2024-01-30T05:47:57;18.80;50.00
30899;DHT22;17914;52.484;13.424;2024-01-30T05:50:27;18.80;50.00
30899;DHT22;17914;52.484;13.424;2024-01-30T05:52:56;18.80;50.00
30899;DHT22;17914;52.484;13.424;2024-01-30T05:55:24;18.80;50.40
30899;DHT22;17914;52.484;13.424;2024-01-30T05:57:52;18.80;49.70
30899;DHT22;17914;52.484;13.424;2024-01-30T06:00:20;18.80;49.60
30899;DHT22;17914;52.484;13.424;2024-01-30T06:02:48;18.80;49.60
30899;DHT22;17914;52.484;13.424;2024-01-30T06:05:16;18.80;49.60
30899;DHT22;17914;52.484;13.424;2024-01-30T06:07:45;18.80;49.60
30899;DHT22;17914;52.484;13.424;2024-01-30T06:10:14;18.70;49.70
30899;DHT22;17914;52.484;13.424;2024-01-30T06:12:42;18.70;49.70
30899;DHT22;17914;52.484;13.424;2024-01-30T06:15:10;18.70;49.70
30899;DHT22;17914;52.484;13.424;2024-01-30T06:17:39;18.70;49.60
30899;DHT22;17914;52.484;13.424;2024-01-30T06:20:07;18.70;49.60
30899;DHT22;17914;52.484;13.424;2024-01-30T06:22:36;18.70;49.60
30899;DHT22;17914;52.484;13.424;2024-01-30T06:25:06;18.70;49.60
30899;DHT22;17914;52.484;13.424;2024-01-30T06:27:34;18.70;49.50
30899;DHT22;17914;52.484;13.424;2024-01-30T06:30:02;18.70;49.50
30899;DHT22;17914;52.484;13.424;2024-01-30T06:32:30;18.60;49.60
30899;DHT22;17914;52.484;13.424;2024-01-30T06:35:01;18.60;50.10
30899;DHT22;17914;52.484;13.424;2024-01-30T06:37:29;18.60;49.70
30899;DHT22;17914;52.484;13.424;2024-01-30T06:39:57;18.60;49.80
30899;DHT22;17914;52.484;13.424;2024-01-30T06:42:27;18.60;49.70
30899;DHT22;17914;52.484;13.424;2024-01-30T06:44:55;18.60;49.70
30899;DHT22;17914;52.484;13.424;2024-01-30T06:47:23;18.60;49.70
30899;DHT22;17914;52.484;13.424;2024-01-30T06:49:51;18.60;49.80
30899;DHT22;17914;52.484;13.424;2024-01-30T06:52:19;18.60;49.80
30899;DHT22;17914;52.484;13.424;2024-01-30T06:54:47;18.50;49.80
30899;DHT22;17914;52.484;13.424;2024-01-30T06:57:15;18.50;49.80
30899;DHT22;17914;52.484;13.424;2024-01-30T06:59:45;18.50;49.80
30899;DHT22;17914;52.484;13.424;2024-01-30T07:02:13;18.50;49.80
30899;DHT22;17914;52.484;13.424;2024-01-30T07:04:41;18.50;49.80
30899;DHT22;17914;52.484;13.424;2024-01-30T07:07:13;18.50;49.80
30899;DHT22;17914;52.484;13.424;2024-01-30T07:09:42;18.50;49.80
30899;DHT22;17914;52.484;13.424;2024-01-30T07:12:10;18.50;49.80
30899;DHT22;17914;52.484;13.424;2024-01-30T07:14:38;18.50;49.70
30899;DHT22;17914;52.484;13.424;2024-01-30T07:17:08;18.50;49.60
30899;DHT22;17914;52.484;13.424;2024-01-30T07:19:36;18.50;49.60
30899;DHT22;17914;52.484;13.424;2024-01-30T07:22:04;18.50;49.50
30899;DHT22;17914;52.484;13.424;2024-01-30T07:24:33;18.50;49.50
30899;DHT22;17914;52.484;13.424;2024-01-30T07:27:01;18.50;49.50
30899;DHT22;17914;52.484;13.424;2024-01-30T07:29:29;18.40;49.40
30899;DHT22;17914;52.484;13.424;2024-01-30T07:31:57;18.40;49.40
30899;DHT22;17914;52.484;13.424;2024-01-30T07:34:26;18.40;50.00
30899;DHT22;17914;52.484;13.424;2024-01-30T07:36:55;18.40;49.30
30899;DHT22;17914;52.484;13.424;2024-01-30T07:39:23;18.40;49.30
30899;DHT22;17914;52.484;13.424;2024-01-30T07:41:51;18.40;49.30
30899;DHT22;17914;52.484;13.424;2024-01-30T07:44:19;18.40;50.00
30899;DHT22;17914;52.484;13.424;2024-01-30T07:46:47;18.40;49.30
30899;DHT22;17914;52.484;13.424;2024-01-30T07:49:15;18.40;49.30
30899;DHT22;17914;52.484;13.424;2024-01-30T07:51:45;18.40;49.30
30899;DHT22;17914;52.484;13.424;2024-01-30T07:54:13;18.40;49.20
30899;DHT22;17914;52.484;13.424;2024-01-30T07:56:41;18.40;49.20
30899;DHT22;17914;52.484;13.424;2024-01-30T07:59:10;18.40;49.20
30899;DHT22;17914;52.484;13.424;2024-01-30T08:01:38;18.30;49.10
30899;DHT22;17914;52.484;13.424;2024-01-30T08:04:06;18.30;49.10
30899;DHT22;17914;52.484;13.424;2024-01-30T08:06:34;18.30;49.20
30899;DHT22;17914;52.484;13.424;2024-01-30T08:09:04;18.30;49.20
30899;DHT22;17914;52.484;13.424;2024-01-30T08:11:32;18.30;49.20
30899;DHT22;17914;52.484;13.424;2024-01-30T08:14:00;18.30;49.20
30899;DHT22;17914;52.484;13.424;2024-01-30T08:16:28;18.30;49.20
30899;DHT22;17914;52.484;13.424;2024-01-30T08:18:56;18.30;49.20
30899;DHT22;17914;52.484;13.424;2024-01-30T08:21:25;18.30;49.20
30899;DHT22;17914;52.484;13.424;2024-01-30T08:23:53;18.30;49.20
30899;DHT22;17914;52.484;13.424;2024-01-30T08:26:22;18.20;49.20
30899;DHT22;17914;52.484;13.424;2024-01-30T08:28:51;18.20;49.30
30899;DHT22;17914;52.484;13.424;2024-01-30T08:31:20;18.20;49.30
30899;DHT22;17914;52.484;13.424;2024-01-30T08:33:49;18.20;49.30
30899;DHT22;17914;52.484;13.424;2024-01-30T08:36:17;18.20;49.40
30899;DHT22;17914;52.484;13.424;2024-01-30T08:38:45;18.20;49.40
30899;DHT22;17914;52.484;13.424;2024-01-30T08:41:13;18.20;49.30
30899;DHT22;17914;52.484;13.424;2024-01-30T08:43:43;18.20;49.40
30899;DHT22;17914;52.484;13.424;2024-01-30T08:46:11;18.20;49.40
30899;DHT22;17914;52.484;13.424;2024-01-30T08:48:41;18.20;50.00
30899;DHT22;17914;52.484;13.424;2024-01-30T08:51:09;18.20;49.40
30899;DHT22;17914;52.484;13.424;2024-01-30T08:53:37;18.20;49.40
30899;DHT22;17914;52.484;13.424;2024-01-30T08:56:06;18.20;49.40
30899;DHT22;17914;52.484;13.424;2024-01-30T08:58:34;18.20;49.50
30899;DHT22;17914;52.484;13.424;2024-01-30T09:01:04;18.20;49.50
30899;DHT22;17914;52.484;13.424;2024-01-30T09:03:33;18.20;49.60
30899;DHT22;17914;52.484;13.424;2024-01-30T09:06:01;18.20;49.60
30899;DHT22;17914;52.484;13.424;2024-01-30T09:08:29;18.10;49.60
30899;DHT22;17914;52.484;13.424;2024-01-30T09:10:57;18.20;49.70
30899;DHT22;17914;52.484;13.424;2024-01-30T09:13:25;18.20;49.80
30899;DHT22;17914;52.484;13.424;2024-01-30T09:15:53;18.10;49.70
30899;DHT22;17914;52.484;13.424;2024-01-30T09:18:24;18.20;49.80
30899;DHT22;17914;52.484;13.424;2024-01-30T09:20:52;18.10;49.80
30899;DHT22;17914;52.484;13.424;2024-01-30T09:23:20;18.20;49.70
30899;DHT22;17914;52.484;13.424;2024-01-30T09:25:48;18.20;49.60
30899;DHT22;17914;52.484;13.424;2024-01-30T09:28:17;18.20;49.60
30899;DHT22;17914;52.484;13.424;2024-01-30T09:30:45;18.10;49.60
30899;DHT22;17914;52.484;13.424;2024-01-30T09:33:13;18.20;49.60
30899;DHT22;17914;52.484;13.424;2024-01-30T09:35:43;18.20;49.80
30899;DHT22;17914;52.484;13.424;2024-01-30T09:38:11;18.20;49.80
30899;DHT22;17914;52.484;13.424;2024-01-30T09:40:39;18.20;49.70
30899;DHT22;17914;52.484;13.424;2024-01-30T09:43:10;18.20;49.70
30899;DHT22;17914;52.484;13.424;2024-01-30T09:45:44;18.20;49.70
30899;DHT22;17914;52.484;13.424;2024-01-30T09:48:13;18.20;49.70
30899;DHT22;17914;52.484;13.424;2024-01-30T09:50:43;18.10;49.60
30899;DHT22;17914;52.484;13.424;2024-01-30T09:53:11;18.20;49.70
30899;DHT22;17914;52.484;13.424;2024-01-30T09:55:43;18.20;49.80
30899;DHT22;17914;52.484;13.424;2024-01-30T09:58:12;18.10;49.70
30899;DHT22;17914;52.484;13.424;2024-01-30T10:00:40;18.10;49.70
30899;DHT22;17914;52.484;13.424;2024-01-30T10:03:08;18.10;49.70
30899;DHT22;17914;52.484;13.424;2024-01-30T10:05:36;18.10;49.70
30899;DHT22;17914;52.484;13.424;2024-01-30T10:08:08;18.10;49.80
30899;DHT22;17914;52.484;13.424;2024-01-30T10:10:37;18.10;49.80
30899;DHT22;17914;52.484;13.424;2024-01-30T10:13:05;18.10;49.80
30899;DHT22;17914;52.484;13.424;2024-01-30T10:15:33;18.10;49.80
30899;DHT22;17914;52.484;13.424;2024-01-30T10:18:02;18.10;49.70
30899;DHT22;17914;52.484;13.424;2024-01-30T10:20:33;18.10;49.70
30899;DHT22;17914;52.484;13.424;2024-01-30T10:23:02;18.10;49.70
30899;DHT22;17914;52.484;13.424;2024-01-30T10:25:32;18.10;49.80
30899;DHT22;17914;52.484;13.424;2024-01-30T10:28:00;18.10;49.80
30899;DHT22;17914;52.484;13.424;2024-01-30T10:30:29;18.10;49.70
30899;DHT22;17914;52.484;13.424;2024-01-30T10:32:57;18.10;49.70
30899;DHT22;17914;52.484;13.424;2024-01-30T10:35:27;18.10;49.70
30899;DHT22;17914;52.484;13.424;2024-01-30T10:37:57;18.10;49.70
30899;DHT22;17914;52.484;13.424;2024-01-30T10:40:28;18.10;49.80
30899;DHT22;17914;52.484;13.424;2024-01-30T10:42:59;18.10;49.80
30899;DHT22;17914;52.484;13.424;2024-01-30T10:45:31;18.10;49.80
30899;DHT22;17914;52.484;13.424;2024-01-30T10:48:00;18.10;49.80
30899;DHT22;17914;52.484;13.424;2024-01-30T10:50:30;18.10;49.80
30899;DHT22;17914;52.484;13.424;2024-01-30T10:53:03;18.10;49.80
30899;DHT22;17914;52.484;13.424;2024-01-30T10:55:32;18.10;49.80
30899;DHT22;17914;52.484;13.424;2024-01-30T10:58:03;18.10;49.80
30899;DHT22;17914;52.484;13.424;2024-01-30T11:00:31;18.10;49.80
30899;DHT22;17914;52.484;13.424;2024-01-30T11:03:01;18.10;49.90
30899;DHT22;17914;52.484;13.424;2024-01-30T11:05:30;18.10;49.90
30899;DHT22;17914;52.484;13.424;2024-01-30T11:08:10;18.10;49.80
30899;DHT22;17914;52.484;13.424;2024-01-30T11:10:45;18.10;49.90
30899;DHT22;17914;52.484;13.424;2024-01-30T11:13:15;18.10;49.80
30899;DHT22;17914;52.484;13.424;2024-01-30T11:15:43;18.10;49.80
30899;DHT22;17914;52.484;13.424;2024-01-30T11:18:11;18.10;49.90
30899;DHT22;17914;52.484;13.424;2024-01-30T11:20:50;18.10;49.80
30899;DHT22;17914;52.484;13.424;2024-01-30T11:23:18;18.10;49.80
30899;DHT22;17914;52.484;13.424;2024-01-30T11:25:46;18.10;49.80
30899;DHT22;17914;52.484;13.424;2024-01-30T11:28:16;18.10;49.80
30899;DHT22;17914;52.484;13.424;2024-01-30T11:30:44;18.10;49.80
30899;DHT22;17914;52.484;13.424;2024-01-30T11:33:16;18.00;50.40
30899;DHT22;17914;52.484;13.424;2024-01-30T11:35:59;18.00;49.90
30899;DHT22;17914;52.484;13.424;2024-01-30T11:38:28;18.00;49.90
30899;DHT22;17914;52.484;13.424;2024-01-30T11:40:56;18.00;49.80
30899;DHT22;17914;52.484;13.424;2024-01-30T11:43:26;18.00;49.90
30899;DHT22;17914;52.484;13.424;2024-01-30T11:45:54;18.00;49.90
30899;DHT22;17914;52.484;13.424;2024-01-30T11:48:23;18.00;49.80
30899;DHT22;17914;52.484;13.424;2024-01-30T11:50:51;18.00;49.80
30899;DHT22;17914;52.484;13.424;2024-01-30T11:53:20;18.00;49.70
30899;DHT22;17914;52.484;13.424;2024-01-30T11:55:52;18.00;49.70
30899;DHT22;17914;52.484;13.424;2024-01-30T11:58:20;18.00;49.80
30899;DHT22;17914;52.484;13.424;2024-01-30T12:00:56;18.00;49.90
30899;DHT22;17914;52.484;13.424;2024-01-30T12:03:24;18.00;49.90
30899;DHT22;17914;52.484;13.424;2024-01-30T12:05:56;18.00;49.90
30899;DHT22;17914;52.484;13.424;2024-01-30T12:08:25;18.00;49.90
30899;DHT22;17914;52.484;13.424;2024-01-30T12:10:57;18.00;49.90
30899;DHT22;17914;52.484;13.424;2024-01-30T12:13:28;18.00;49.90
30899;DHT22;17914;52.484;13.424;2024-01-30T12:16:01;18.00;49.80
30899;DHT22;17914;52.484;13.424;2024-01-30T12:18:29;18.00;49.80
30899;DHT22;17914;52.484;13.424;2024-01-30T12:20:58;18.00;49.80
30899;DHT22;17914;52.484;13.424;2024-01-30T12:23:27;18.00;49.70
30899;DHT22;17914;52.484;13.424;2024-01-30T12:25:55;18.00;49.80
30899;DHT22;17914;52.484;13.424;2024-01-30T12:28:23;18.00;49.90
30899;DHT22;17914;52.484;13.424;2024-01-30T12:30:55;18.00;49.80
30899;DHT22;17914;52.484;13.424;2024-01-30T12:33:27;18.00;49.80
30899;DHT22;17914;52.484;13.424;2024-01-30T12:35:55;18.00;49.90
30899;DHT22;17914;52.484;13.424;2024-01-30T12:38:29;18.00;49.90
30899;DHT22;17914;52.484;13.424;2024-01-30T12:40:57;18.00;49.90
30899;DHT22;17914;52.484;13.424;2024-01-30T12:43:25;18.00;49.90
30899;DHT22;17914;52.484;13.424;2024-01-30T12:46:04;18.00;49.90
30899;DHT22;17914;52.484;13.424;2024-01-30T12:48:34;18.00;49.80
30899;DHT22;17914;52.484;13.424;2024-01-30T12:51:03;18.00;49.90
30899;DHT22;17914;52.484;13.424;2024-01-30T12:53:31;18.00;50.30
30899;DHT22;17914;52.484;13.424;2024-01-30T12:55:59;18.00;49.80
30899;DHT22;17914;52.484;13.424;2024-01-30T12:58:27;18.00;49.90
30899;DHT22;17914;52.484;13.424;2024-01-30T13:00:56;18.00;49.90
30899;DHT22;17914;52.484;13.424;2024-01-30T13:03:24;18.00;49.90
30899;DHT22;17914;52.484;13.424;2024-01-30T13:05:55;18.00;49.80
30899;DHT22;17914;52.484;13.424;2024-01-30T13:08:23;18.00;49.90
30899;DHT22;17914;52.484;13.424;2024-01-30T13:10:51;18.00;49.80
30899;DHT22;17914;52.484;13.424;2024-01-30T13:13:19;18.00;49.80
30899;DHT22;17914;52.484;13.424;2024-01-30T13:15:48;18.00;49.90
30899;DHT22;17914;52.484;13.424;2024-01-30T13:18:16;18.00;50.40
30899;DHT22;17914;52.484;13.424;2024-01-30T13:20:44;18.00;49.90
30899;DHT22;17914;52.484;13.424;2024-01-30T13:23:13;18.00;49.90
30899;DHT22;17914;52.484;13.424;2024-01-30T13:25:42;17.90;49.80
30899;DHT22;17914;52.484;13.424;2024-01-30T13:28:09;17.90;49.80
30899;DHT22;17914;52.484;13.424;2024-01-30T13:30:37;17.90;49.80
30899;DHT22;17914;52.484;13.424;2024-01-30T13:33:06;17.90;49.80
30899;DHT22;17914;52.484;13.424;2024-01-30T13:35:34;17.90;49.80
30899;DHT22;17914;52.484;13.424;2024-01-30T13:38:02;17.90;49.80
30899;DHT22;17914;52.484;13.424;2024-01-30T13:40:31;17.90;49.90
30899;DHT22;17914;52.484;13.424;2024-01-30T13:42:59;17.90;49.90
30899;DHT22;17914;52.484;13.424;2024-01-30T13:45:27;17.90;49.90
30899;DHT22;17914;52.484;13.424;2024-01-30T13:47:55;17.90;49.90
30899;DHT22;17914;52.484;13.424;2024-01-30T13:50:24;17.90;49.90
30899;DHT22;17914;52.484;13.424;2024-01-30T13:52:52;17.90;49.80
30899;DHT22;17914;52.484;13.424;2024-01-30T13:55:21;17.90;49.90
30899;DHT22;17914;52.484;13.424;2024-01-30T13:57:51;17.90;49.90
30899;DHT22;17914;52.484;13.424;2024-01-30T14:00:19;17.90;49.90
30899;DHT22;17914;52.484;13.424;2024-01-30T14:02:49;17.90;49.90
30899;DHT22;17914;52.484;13.424;2024-01-30T14:05:17;17.90;49.90
30899;DHT22;17914;52.484;13.424;2024-01-30T14:07:46;17.90;49.90
30899;DHT22;17914;52.484;13.424;2024-01-30T14:10:14;17.90;49.90
30899;DHT22;17914;52.484;13.424;2024-01-30T14:12:42;17.90;49.80
30899;DHT22;17914;52.484;13.424;2024-01-30T14:15:13;17.90;49.90
30899;DHT22;17914;52.484;13.424;2024-01-30T14:17:54;17.90;49.90
30899;DHT22;17914;52.484;13.424;2024-01-30T14:20:23;17.90;49.90
30899;DHT22;17914;52.484;13.424;2024-01-30T14:22:51;17.90;49.90
30899;DHT22;17914;52.484;13.424;2024-01-30T14:25:20;17.80;49.90
30899;DHT22;17914;52.484;13.424;2024-01-30T14:27:48;17.90;50.00
30899;DHT22;17914;52.484;13.424;2024-01-30T14:30:17;17.90;49.90
30899;DHT22;17914;52.484;13.424;2024-01-30T14:32:45;17.80;49.90
30899;DHT22;17914;52.484;13.424;2024-01-30T14:35:14;17.90;49.90
30899;DHT22;17914;52.484;13.424;2024-01-30T14:37:42;17.90;49.90
30899;DHT22;17914;52.484;13.424;2024-01-30T14:40:11;17.90;49.90
30899;DHT22;17914;52.484;13.424;2024-01-30T14:42:39;17.90;49.90
30899;DHT22;17914;52.484;13.424;2024-01-30T14:45:07;17.80;49.90
30899;DHT22;17914;52.484;13.424;2024-01-30T14:47:37;17.90;49.90
30899;DHT22;17914;52.484;13.424;2024-01-30T14:50:06;17.90;49.90
30899;DHT22;17914;52.484;13.424;2024-01-30T14:52:35;17.90;49.90
30899;DHT22;17914;52.484;13.424;2024-01-30T14:55:05;17.90;49.90
30899;DHT22;17914;52.484;13.424;2024-01-30T14:57:33;17.90;50.00
30899;DHT22;17914;52.484;13.424;2024-01-30T15:00:03;17.90;49.90
30899;DHT22;17914;52.484;13.424;2024-01-30T15:02:31;17.90;49.90
30899;DHT22;17914;52.484;13.424;2024-01-30T15:05:01;17.90;50.00
30899;DHT22;17914;52.484;13.424;2024-01-30T15:07:29;17.90;50.00
30899;DHT22;17914;52.484;13.424;2024-01-30T15:10:07;17.90;50.00
30899;DHT22;17914;52.484;13.424;2024-01-30T15:12:37;17.90;50.00
30899;DHT22;17914;52.484;13.424;2024-01-30T15:15:07;17.80;49.90
30899;DHT22;17914;52.484;13.424;2024-01-30T15:17:38;17.90;50.00
30899;DHT22;17914;52.484;13.424;2024-01-30T15:20:08;17.90;50.00
30899;DHT22;17914;52.484;13.424;2024-01-30T15:22:37;17.80;49.90
30899;DHT22;17914;52.484;13.424;2024-01-30T15:25:07;17.80;50.00